createdAt,value
2023-01-23T00:01:26.422Z,-2.90
2023-01-23T00:03:54.795Z,-2.90
2023-01-23T00:06:21.917Z,-3.10
2023-01-23T00:08:48.818Z,-3.10
2023-01-23T00:11:20.616Z,-3.20
2023-01-23T00:13:47.535Z,-3.30
2023-01-23T00:16:18.445Z,-3.30
2023-01-23T00:18:46.086Z,-3.40
2023-01-23T00:21:17.100Z,-3.50
2023-01-23T00:23:47.035Z,-3.60
2023-01-23T00:26:18.283Z,-3.70
2023-01-23T00:28:46.291Z,-3.70
2023-01-23T00:31:29.573Z,-3.70
2023-01-23T00:34:01.678Z,-3.70
2023-01-23T00:36:32.851Z,-3.70
2023-01-23T00:38:59.995Z,-3.80
2023-01-23T00:41:27.363Z,-3.80
2023-01-23T00:43:54.711Z,-3.80
2023-01-23T00:46:22.511Z,-3.80
2023-01-23T00:48:50.237Z,-3.70
2023-01-23T00:51:17.535Z,-3.70
2023-01-23T00:53:45.267Z,-3.60
2023-01-23T00:56:12.273Z,-3.40
2023-01-23T00:58:40.463Z,-3.30
2023-01-23T01:01:08.012Z,-3.20
2023-01-23T01:03:35.570Z,-3.10
2023-01-23T01:06:02.890Z,-2.90
2023-01-23T01:08:29.754Z,-2.80
2023-01-23T01:10:56.595Z,-2.70
2023-01-23T01:13:27.406Z,-2.60
2023-01-23T01:15:54.969Z,-2.50
2023-01-23T01:18:22.942Z,-2.50
2023-01-23T01:20:51.315Z,-2.40
2023-01-23T01:23:19.011Z,-2.30
2023-01-23T01:25:46.168Z,-2.30
2023-01-23T01:28:13.741Z,-2.40
2023-01-23T01:30:41.281Z,-2.40
2023-01-23T01:33:08.352Z,-2.40
2023-01-23T01:35:35.218Z,-2.40
2023-01-23T01:38:02.044Z,-2.50
2023-01-23T01:40:33.970Z,-2.70
2023-01-23T01:43:06.898Z,-2.80
2023-01-23T01:46:05.770Z,-2.80
2023-01-23T01:49:05.419Z,-2.70
2023-01-23T01:51:52.716Z,-2.60
2023-01-23T01:54:53.077Z,-2.60
2023-01-23T01:57:36.941Z,-2.50
2023-01-23T02:00:15.628Z,-2.40
2023-01-23T02:02:47.035Z,-2.30
2023-01-23T02:05:22.748Z,-2.30
2023-01-23T02:08:04.699Z,-2.30
2023-01-23T02:10:36.277Z,-2.30
2023-01-23T02:13:38.647Z,-2.30
2023-01-23T02:16:17.999Z,-2.40
2023-01-23T02:18:49.034Z,-2.40
2023-01-23T02:21:22.628Z,-2.40
2023-01-23T02:23:56.709Z,-2.50
2023-01-23T02:26:32.985Z,-2.50
2023-01-23T02:29:00.009Z,-2.50
2023-01-23T02:31:27.331Z,-2.50
2023-01-23T02:33:59.624Z,-2.50
2023-01-23T02:36:30.277Z,-2.60
2023-01-23T02:39:18.288Z,-2.70
2023-01-23T02:41:48.587Z,-2.60
2023-01-23T02:44:33.793Z,-2.50
2023-01-23T02:47:12.425Z,-2.50
2023-01-23T02:49:40.419Z,-2.40
2023-01-23T02:52:07.761Z,-2.30
2023-01-23T02:54:34.605Z,-2.30
2023-01-23T02:57:01.763Z,-2.30
2023-01-23T02:59:46.991Z,-2.20
2023-01-23T03:02:14.550Z,-2.30
2023-01-23T03:04:41.848Z,-2.20
2023-01-23T03:07:08.671Z,-2.20
2023-01-23T03:09:35.697Z,-2.20
2023-01-23T03:12:02.933Z,-2.30
2023-01-23T03:14:32.316Z,-2.40
2023-01-23T03:16:59.169Z,-2.40
2023-01-23T03:19:27.084Z,-2.30
2023-01-23T03:21:54.797Z,-2.20
2023-01-23T03:24:21.927Z,-2.20
2023-01-23T03:26:50.871Z,-2.30
2023-01-23T03:29:40.392Z,-2.20
2023-01-23T03:32:08.536Z,-2.20
2023-01-23T03:34:35.739Z,-2.10
2023-01-23T03:37:03.360Z,-2.10
2023-01-23T03:39:49.238Z,-2.00
2023-01-23T03:42:16.066Z,-2.00
2023-01-23T03:44:43.315Z,-2.10
2023-01-23T03:47:10.666Z,-2.10
2023-01-23T03:49:37.513Z,-2.10
2023-01-23T03:52:04.557Z,-2.00
2023-01-23T03:54:31.415Z,-2.00
2023-01-23T03:56:58.396Z,-2.00
2023-01-23T03:59:25.199Z,-2.00
2023-01-23T04:01:52.342Z,-1.90
2023-01-23T04:04:19.195Z,-1.90
2023-01-23T04:06:46.026Z,-1.90
2023-01-23T04:09:13.115Z,-1.90
2023-01-23T04:11:40.046Z,-1.90
2023-01-23T04:14:07.044Z,-1.90
2023-01-23T04:16:33.963Z,-1.90
2023-01-23T04:19:00.839Z,-1.80
2023-01-23T04:21:27.748Z,-1.80
2023-01-23T04:23:54.546Z,-1.80
2023-01-23T04:26:21.436Z,-1.70
2023-01-23T04:28:48.236Z,-1.70
2023-01-23T04:31:15.114Z,-1.70
2023-01-23T04:33:42.091Z,-1.70
2023-01-23T04:36:10.187Z,-1.70
2023-01-23T04:38:37.151Z,-1.70
2023-01-23T04:41:04.601Z,-1.70
2023-01-23T04:43:31.824Z,-1.80
2023-01-23T04:45:58.841Z,-1.80
2023-01-23T04:48:26.275Z,-1.70
2023-01-23T04:50:53.322Z,-1.60
2023-01-23T04:53:20.323Z,-1.60
2023-01-23T04:55:49.246Z,-1.60
2023-01-23T04:58:18.653Z,-1.60
2023-01-23T05:00:46.280Z,-1.60
2023-01-23T05:03:14.263Z,-1.50
2023-01-23T05:05:42.723Z,-1.50
2023-01-23T05:08:10.904Z,-1.50
2023-01-23T05:10:38.700Z,-1.50
2023-01-23T05:13:05.686Z,-1.50
2023-01-23T05:15:32.727Z,-1.40
2023-01-23T05:17:59.672Z,-1.40
2023-01-23T05:20:26.557Z,-1.30
2023-01-23T05:22:53.533Z,-1.30
2023-01-23T05:25:23.325Z,-1.30
2023-01-23T05:27:50.341Z,-1.30
2023-01-23T05:30:18.596Z,-1.30
2023-01-23T05:32:45.844Z,-1.20
2023-01-23T05:35:12.712Z,-1.20
2023-01-23T05:37:39.683Z,-1.20
2023-01-23T05:40:09.208Z,-1.20
2023-01-23T05:42:36.082Z,-1.10
2023-01-23T05:45:03.030Z,-1.10
2023-01-23T05:47:30.125Z,-1.10
2023-01-23T05:49:56.951Z,-1.10
2023-01-23T05:52:24.003Z,-1.10
2023-01-23T05:54:50.800Z,-1.10
2023-01-23T05:57:17.731Z,-1.10
2023-01-23T05:59:44.706Z,-1.20
2023-01-23T06:02:11.903Z,-1.20
2023-01-23T06:04:38.882Z,-1.20
2023-01-23T06:07:08.287Z,-1.20
2023-01-23T06:09:35.141Z,-1.10
2023-01-23T06:12:02.017Z,-1.00
2023-01-23T06:14:28.918Z,-0.90
2023-01-23T06:16:55.714Z,-0.90
2023-01-23T06:19:22.731Z,-0.80
2023-01-23T06:21:49.584Z,-0.80
2023-01-23T06:24:16.462Z,-0.80
2023-01-23T06:26:43.365Z,-0.90
2023-01-23T06:29:10.148Z,-0.90
2023-01-23T06:31:37.165Z,-0.80
2023-01-23T06:34:04.723Z,-0.80
2023-01-23T06:36:31.707Z,-0.70
2023-01-23T06:38:58.554Z,-0.70
2023-01-23T06:41:25.546Z,-0.70
2023-01-23T06:43:53.663Z,-0.70
2023-01-23T06:46:21.482Z,-0.70
2023-01-23T06:48:48.449Z,-0.80
2023-01-23T06:51:15.337Z,-0.80
2023-01-23T06:53:42.230Z,-0.80
2023-01-23T06:56:14.132Z,-0.80
2023-01-23T06:58:45.608Z,-0.90
2023-01-23T07:01:16.303Z,-0.80
2023-01-23T07:03:44.877Z,-0.70
2023-01-23T07:06:13.473Z,-0.70
2023-01-23T07:08:41.448Z,-0.70
2023-01-23T07:11:09.216Z,-0.70
2023-01-23T07:13:36.144Z,-0.60
2023-01-23T07:16:03.405Z,-0.60
2023-01-23T07:18:30.435Z,-0.60
2023-01-23T07:20:57.504Z,-0.70
2023-01-23T07:23:24.362Z,-0.60
2023-01-23T07:25:51.331Z,-0.50
2023-01-23T07:28:18.126Z,-0.40
2023-01-23T07:30:45.066Z,-0.40
2023-01-23T07:33:12.463Z,-0.40
2023-01-23T07:35:40.632Z,-0.40
2023-01-23T07:38:07.493Z,-0.40
2023-01-23T07:40:34.411Z,-0.40
2023-01-23T07:43:01.207Z,-0.30
2023-01-23T07:45:28.033Z,-0.30
2023-01-23T07:47:55.748Z,-0.30
2023-01-23T07:50:22.818Z,-0.30
2023-01-23T07:52:49.755Z,-0.30
2023-01-23T07:55:16.709Z,-0.20
2023-01-23T07:57:43.598Z,-0.20
2023-01-23T08:00:11.145Z,-0.10
2023-01-23T08:02:38.478Z,-0.10
2023-01-23T08:05:06.086Z,0.00
2023-01-23T08:07:33.274Z,0.10
2023-01-23T08:10:00.139Z,0.20
2023-01-23T08:12:26.955Z,0.00
2023-01-23T08:14:53.785Z,0.10
2023-01-23T08:17:21.139Z,0.10
2023-01-23T08:19:49.179Z,0.30
2023-01-23T08:22:16.015Z,0.20
2023-01-23T08:24:42.836Z,0.20
2023-01-23T08:27:09.665Z,0.20
2023-01-23T08:29:36.524Z,0.20
2023-01-23T08:32:03.604Z,0.30
2023-01-23T08:34:30.492Z,0.30
2023-01-23T08:36:57.383Z,0.40
2023-01-23T08:39:24.512Z,0.50
2023-01-23T08:41:51.762Z,0.50
2023-01-23T08:44:18.589Z,0.60
2023-01-23T08:46:46.502Z,0.60
2023-01-23T08:49:13.767Z,0.50
2023-01-23T08:51:40.589Z,0.60
2023-01-23T08:54:07.460Z,0.70
2023-01-23T08:56:34.349Z,0.80
2023-01-23T08:59:01.172Z,0.80
2023-01-23T09:01:28.521Z,0.80
2023-01-23T09:03:56.702Z,0.90
2023-01-23T09:06:23.641Z,1.10
2023-01-23T09:08:50.633Z,1.10
2023-01-23T09:11:18.737Z,1.20
2023-01-23T09:13:47.366Z,1.30
2023-01-23T09:16:14.379Z,1.40
2023-01-23T09:18:41.310Z,1.50
2023-01-23T09:21:14.420Z,1.60
2023-01-23T09:23:41.306Z,1.70
2023-01-23T09:26:12.082Z,1.80
2023-01-23T09:28:42.043Z,1.80
2023-01-23T09:31:12.971Z,1.90
2023-01-23T09:33:41.214Z,2.00
2023-01-23T09:36:09.418Z,2.00
2023-01-23T09:38:36.719Z,2.10
2023-01-23T09:41:30.101Z,2.10
2023-01-23T09:44:09.318Z,2.20
2023-01-23T09:46:43.417Z,2.20
2023-01-23T09:49:33.955Z,2.40
2023-01-23T09:52:07.992Z,2.30
2023-01-23T09:55:02.153Z,2.40
2023-01-23T09:57:37.073Z,2.40
2023-01-23T10:00:14.843Z,2.40
2023-01-23T10:02:45.468Z,2.50
2023-01-23T10:05:18.086Z,2.70
2023-01-23T10:08:28.679Z,2.70
2023-01-23T10:11:27.140Z,2.60
2023-01-23T10:14:26.016Z,2.70
2023-01-23T10:17:04.707Z,2.80
2023-01-23T10:20:22.422Z,2.80
2023-01-23T10:23:18.737Z,3.00
2023-01-23T10:25:46.792Z,3.00
2023-01-23T10:28:39.298Z,3.00
2023-01-23T10:31:20.989Z,2.80
2023-01-23T10:34:14.581Z,2.90
2023-01-23T10:37:07.484Z,2.90
2023-01-23T10:39:53.428Z,2.70
2023-01-23T10:42:23.755Z,2.50
2023-01-23T10:44:51.299Z,2.40
2023-01-23T10:47:54.553Z,2.40
2023-01-23T10:50:40.653Z,2.40
2023-01-23T10:53:19.677Z,2.50
2023-01-23T10:55:48.112Z,2.50
2023-01-23T10:58:39.731Z,2.60
2023-01-23T11:01:26.714Z,2.60
2023-01-23T11:03:53.817Z,2.50
2023-01-23T11:06:25.984Z,2.50
2023-01-23T11:09:02.001Z,2.70
2023-01-23T11:11:31.831Z,2.90
2023-01-23T11:14:28.027Z,2.90
2023-01-23T11:17:25.130Z,3.10
2023-01-23T11:19:54.469Z,3.00
2023-01-23T11:22:30.768Z,3.10
2023-01-23T11:24:58.967Z,3.20
2023-01-23T11:27:31.073Z,3.20
2023-01-23T11:30:17.538Z,3.20
2023-01-23T11:32:59.239Z,3.20
2023-01-23T11:36:02.755Z,3.30
2023-01-23T11:38:52.490Z,3.20
2023-01-23T11:41:24.499Z,3.40
2023-01-23T11:43:52.777Z,3.40
2023-01-23T11:46:34.411Z,3.30
2023-01-23T11:49:24.677Z,3.40
2023-01-23T11:52:17.814Z,3.50
2023-01-23T11:55:07.982Z,3.40
2023-01-23T11:58:18.172Z,3.40
2023-01-23T12:00:49.802Z,3.40
2023-01-23T12:04:13.293Z,3.40
2023-01-23T12:06:52.536Z,3.50
2023-01-23T12:09:21.669Z,3.50
2023-01-23T12:12:22.285Z,3.60
2023-01-23T12:15:24.410Z,3.40
2023-01-23T12:18:16.183Z,3.50
2023-01-23T12:21:02.933Z,3.40
2023-01-23T12:24:03.109Z,3.60
2023-01-23T12:26:31.858Z,3.70
2023-01-23T12:29:35.539Z,3.60
2023-01-23T12:32:33.194Z,3.50
2023-01-23T12:35:14.948Z,3.60
2023-01-23T12:38:11.675Z,3.60
2023-01-23T12:40:56.252Z,3.60
2023-01-23T12:43:45.574Z,3.60
2023-01-23T12:46:45.130Z,3.50
2023-01-23T12:49:34.747Z,3.40
2023-01-23T12:52:29.109Z,3.50
2023-01-23T12:55:21.870Z,3.60
2023-01-23T12:58:07.804Z,3.60
2023-01-23T13:00:46.875Z,3.60
2023-01-23T13:03:47.433Z,3.80
2023-01-23T13:06:28.884Z,3.80
2023-01-23T13:09:39.837Z,3.80
2023-01-23T13:12:25.590Z,3.90
2023-01-23T13:15:15.482Z,4.20
2023-01-23T13:18:13.300Z,4.30
2023-01-23T13:21:15.715Z,4.40
2023-01-23T13:23:42.651Z,4.20
2023-01-23T13:26:15.735Z,4.10
2023-01-23T13:28:59.230Z,3.90
2023-01-23T13:31:46.685Z,3.80
2023-01-23T13:34:16.902Z,3.50
2023-01-23T13:36:49.445Z,3.50
2023-01-23T13:39:27.986Z,3.60
2023-01-23T13:42:15.783Z,3.50
2023-01-23T13:45:16.554Z,3.40
2023-01-23T14:22:44.200Z,3.10
2023-01-23T14:25:18.404Z,3.20
2023-01-23T14:27:53.366Z,3.20
2023-01-23T14:30:26.648Z,3.20
2023-01-23T14:32:54.289Z,3.10
2023-01-23T14:35:33.056Z,3.10
2023-01-23T14:38:05.031Z,3.10
2023-01-23T14:40:43.477Z,3.10
2023-01-23T14:43:26.862Z,3.00
2023-01-23T14:46:20.409Z,3.00
2023-01-23T14:48:54.572Z,3.10
2023-01-23T14:51:25.617Z,3.10
2023-01-23T14:54:20.434Z,3.00
2023-01-23T14:56:50.172Z,3.00
2023-01-23T14:59:36.024Z,3.00
2023-01-23T15:02:31.415Z,2.90
2023-01-23T15:05:27.062Z,2.90
2023-01-23T15:08:05.959Z,2.90
2023-01-23T15:10:35.758Z,3.00
2023-01-23T15:13:11.351Z,3.00
2023-01-23T15:15:44.660Z,2.90
2023-01-23T15:18:24.812Z,2.90
2023-01-23T15:21:04.653Z,2.90
2023-01-23T15:23:39.190Z,2.80
2023-01-23T15:26:14.707Z,2.80
2023-01-23T15:28:56.395Z,2.80
2023-01-23T15:31:28.407Z,2.80
2023-01-23T15:34:10.032Z,2.90
2023-01-23T15:36:36.999Z,2.90
2023-01-23T15:39:03.937Z,3.00
2023-01-23T15:41:53.538Z,2.90
2023-01-23T15:44:23.083Z,2.90
2023-01-23T15:46:50.182Z,2.90
2023-01-23T15:49:25.434Z,3.00
2023-01-23T15:51:59.589Z,3.00
2023-01-23T15:54:36.318Z,2.90
2023-01-23T15:57:08.766Z,2.90
2023-01-23T15:59:37.039Z,2.80
2023-01-23T16:02:06.445Z,2.80
2023-01-23T16:04:35.275Z,2.80
2023-01-23T16:07:07.412Z,2.80
2023-01-23T16:09:38.064Z,2.70
2023-01-23T16:12:05.465Z,2.70
2023-01-23T16:14:32.451Z,2.70
2023-01-23T16:17:11.514Z,2.60
2023-01-23T16:19:43.120Z,2.60
2023-01-23T16:22:25.154Z,2.60
2023-01-23T16:24:52.578Z,2.60
2023-01-23T16:27:27.117Z,2.60
2023-01-23T16:29:55.779Z,2.60
2023-01-23T16:32:22.893Z,2.60
2023-01-23T16:34:50.009Z,2.60
2023-01-23T16:37:19.143Z,2.50
2023-01-23T16:39:47.800Z,2.50
2023-01-23T16:42:24.927Z,2.50
2023-01-23T16:44:51.883Z,2.50
2023-01-23T16:47:18.952Z,2.60
2023-01-23T16:49:54.202Z,2.50
2023-01-23T16:52:25.080Z,2.50
2023-01-23T16:54:53.291Z,2.50
2023-01-23T16:57:21.235Z,2.50
2023-01-23T16:59:48.863Z,2.40
2023-01-23T17:02:25.972Z,2.50
2023-01-23T17:04:52.879Z,2.60
2023-01-23T17:07:20.364Z,2.50
2023-01-23T17:09:49.065Z,2.40
2023-01-23T17:12:27.760Z,2.40
2023-01-23T17:14:55.365Z,2.50
2023-01-23T17:17:35.675Z,2.40
2023-01-23T17:20:05.446Z,2.40
2023-01-23T17:22:39.159Z,2.40
2023-01-23T17:25:18.132Z,2.40
2023-01-23T17:27:51.907Z,2.40
2023-01-23T17:30:25.563Z,2.40
2023-01-23T17:32:55.726Z,2.40
2023-01-23T17:35:45.099Z,2.40
2023-01-23T17:38:21.684Z,2.30
2023-01-23T17:40:49.485Z,2.20
2023-01-23T17:43:18.637Z,2.30
2023-01-23T17:45:50.136Z,2.30
2023-01-23T17:48:28.349Z,2.20
2023-01-23T17:50:55.837Z,2.10
2023-01-23T17:53:23.996Z,2.20
2023-01-23T17:55:52.719Z,2.20
2023-01-23T17:58:20.601Z,2.30
2023-01-23T18:00:52.232Z,2.30
2023-01-23T18:03:24.705Z,2.20
2023-01-23T18:05:52.021Z,2.20
2023-01-23T18:08:23.990Z,2.30
2023-01-23T18:10:56.607Z,2.30
2023-01-23T18:13:47.378Z,2.30
2023-01-23T18:16:42.481Z,2.30
2023-01-23T18:19:21.324Z,2.30
2023-01-23T18:21:54.750Z,2.30
2023-01-23T18:24:30.036Z,2.30
2023-01-23T18:27:21.806Z,2.20
2023-01-23T18:30:00.415Z,2.30
2023-01-23T18:33:00.221Z,2.30
2023-01-23T18:35:52.045Z,2.20
2023-01-23T18:38:37.564Z,2.20
2023-01-23T18:41:25.033Z,2.30
2023-01-23T18:44:15.044Z,2.30
2023-01-23T18:46:42.219Z,2.30
2023-01-23T18:49:14.947Z,2.30
2023-01-23T18:52:01.584Z,2.30
2023-01-23T18:55:17.680Z,2.20
2023-01-23T18:58:08.887Z,2.30
2023-01-23T19:01:07.600Z,2.30
2023-01-23T19:03:55.275Z,2.30
2023-01-23T19:06:24.799Z,2.20
2023-01-23T19:08:54.240Z,2.20
2023-01-23T19:12:00.897Z,2.20
2023-01-23T19:15:00.330Z,2.20
2023-01-23T19:18:04.490Z,2.20
2023-01-23T19:21:00.495Z,2.10
2023-01-23T19:23:47.200Z,2.10
2023-01-23T19:26:16.436Z,2.10
2023-01-23T19:28:43.599Z,2.10
2023-01-23T19:31:22.664Z,2.10
2023-01-23T19:34:04.419Z,2.10
2023-01-23T19:36:35.039Z,2.00
2023-01-23T19:39:04.377Z,2.10
2023-01-23T19:41:53.259Z,2.10
2023-01-23T19:44:24.023Z,2.10
2023-01-23T19:46:51.927Z,2.10
2023-01-23T19:49:19.036Z,2.10
2023-01-23T19:51:47.331Z,2.10
2023-01-23T19:54:15.781Z,2.10
2023-01-23T19:56:42.769Z,2.10
2023-01-23T19:59:09.727Z,2.10
2023-01-23T20:01:43.309Z,2.10
2023-01-23T20:04:20.768Z,2.10
2023-01-23T20:06:53.936Z,2.10
2023-01-23T20:09:21.316Z,2.10
2023-01-23T20:11:48.638Z,2.10
2023-01-23T20:14:15.896Z,2.10
2023-01-23T20:16:43.627Z,2.20
2023-01-23T20:19:16.794Z,2.10
2023-01-23T20:21:44.097Z,2.10
2023-01-23T20:24:11.355Z,2.10
2023-01-23T20:26:39.299Z,2.10
2023-01-23T20:29:08.399Z,2.10
2023-01-23T20:31:35.769Z,2.10
2023-01-23T20:34:02.858Z,2.10
2023-01-23T20:36:29.824Z,2.10
2023-01-23T20:38:57.122Z,2.00
2023-01-23T20:41:24.104Z,1.90
2023-01-23T20:43:50.934Z,1.90
2023-01-23T20:46:19.265Z,1.90
2023-01-23T20:48:46.558Z,1.90
2023-01-23T20:51:15.769Z,1.90
2023-01-23T20:53:43.451Z,1.90
2023-01-23T20:56:27.467Z,1.90
2023-01-23T20:59:14.695Z,1.90
2023-01-23T21:02:01.136Z,2.00
2023-01-23T21:04:31.805Z,1.90
2023-01-23T21:06:59.683Z,1.90
2023-01-23T21:09:27.330Z,2.00
2023-01-23T21:11:54.938Z,2.00
2023-01-23T21:14:23.343Z,2.00
2023-01-23T21:16:50.279Z,2.00
2023-01-23T21:19:17.133Z,2.00
2023-01-23T21:21:44.198Z,2.00
2023-01-23T21:24:11.305Z,1.90
2023-01-23T21:26:38.309Z,2.00
2023-01-23T21:29:08.048Z,2.00
2023-01-23T21:31:39.347Z,2.00
2023-01-23T21:34:10.188Z,1.90
2023-01-23T21:36:37.948Z,1.90
2023-01-23T21:39:08.595Z,1.80
2023-01-23T21:41:36.418Z,1.90
2023-01-23T21:44:03.194Z,1.90
2023-01-23T21:46:30.120Z,1.90
2023-01-23T21:48:56.985Z,1.90
2023-01-23T21:51:27.837Z,1.90
2023-01-23T21:53:55.038Z,2.00
2023-01-23T21:56:23.439Z,2.00
2023-01-23T21:58:50.545Z,1.90
2023-01-23T22:01:36.066Z,1.90
2023-01-23T22:04:11.130Z,1.90
2023-01-23T22:06:41.265Z,1.90
2023-01-23T22:09:09.670Z,1.90
2023-01-23T22:11:36.936Z,1.90
2023-01-23T22:14:04.603Z,1.80
2023-01-23T22:16:47.511Z,1.90
2023-01-23T22:19:18.864Z,1.90
2023-01-23T22:21:46.547Z,1.90
2023-01-23T22:24:14.446Z,1.90
2023-01-23T22:26:41.384Z,1.90
2023-01-23T22:29:08.781Z,1.90
2023-01-23T22:31:35.760Z,2.00
2023-01-23T22:34:02.952Z,1.90
2023-01-23T22:36:29.830Z,1.90
2023-01-23T22:38:56.927Z,1.90
2023-01-23T22:41:24.154Z,1.80
2023-01-23T22:43:55.707Z,1.90
2023-01-23T22:46:23.593Z,1.90
2023-01-23T22:48:51.350Z,1.90
2023-01-23T22:51:26.820Z,1.90
2023-01-23T22:53:56.381Z,1.80
2023-01-23T22:56:25.526Z,1.80
2023-01-23T22:58:54.342Z,1.90
2023-01-23T23:01:23.384Z,1.90
2023-01-23T23:03:51.673Z,1.90
2023-01-23T23:06:19.419Z,1.90
2023-01-23T23:08:48.145Z,1.90
2023-01-23T23:11:23.965Z,1.90
2023-01-23T23:13:51.255Z,1.90
2023-01-23T23:16:25.070Z,1.90
2023-01-23T23:18:54.853Z,1.90
2023-01-23T23:21:25.306Z,1.90
2023-01-23T23:23:57.124Z,1.90
2023-01-23T23:26:26.628Z,1.90
2023-01-23T23:28:54.633Z,1.90
2023-01-23T23:31:21.555Z,1.90
2023-01-23T23:33:48.475Z,1.90
2023-01-23T23:36:15.301Z,1.90
2023-01-23T23:38:42.133Z,1.90
2023-01-23T23:41:13.491Z,1.90
2023-01-23T23:43:41.122Z,1.90
2023-01-23T23:46:09.728Z,1.90
2023-01-23T23:48:38.038Z,1.90
2023-01-23T23:51:08.984Z,1.90
2023-01-23T23:53:36.603Z,1.90
2023-01-23T23:56:05.019Z,1.90
2023-01-23T23:58:32.538Z,1.90
